Time;durP1;ratioP1;P1;durP2;ratioP2;P2;SDS_P1;SDS_P2;PMS_P1;PMS_P2;Temp;Humidity;BMP_temperature;BMP_pressure;BME280_temperature;BME280_humidity;BME280_pressure;Samples;Min_cycle;Max_cycle;Signal;HPM_P1;HPM_P2
2022/11/13 00:01:22;;;;;;;52.03;29.50;;;4.10;99.90;;;;;;4988621;28;20559;-78
2022/11/13 00:03:48;;;;;;;50.30;31.43;;;4.20;99.90;;;;;;4992618;28;20078;-78
2022/11/13 00:06:15;;;;;;;53.13;31.77;;;4.30;99.90;;;;;;4982755;28;20069;-77
2022/11/13 00:08:41;;;;;;;50.87;31.83;;;4.30;99.90;;;;;;4965960;28;20038;-78
2022/11/13 00:11:10;;;;;;;52.93;31.23;;;4.30;99.90;;;;;;4990984;28;20104;-77
2022/11/13 00:13:36;;;;;;;53.47;33.37;;;4.40;99.90;;;;;;4991174;28;20049;-77
2022/11/13 00:16:05;;;;;;;52.57;34.03;;;4.30;99.90;;;;;;4990861;28;20046;-79
2022/11/13 00:18:34;;;;;;;63.73;37.13;;;4.50;99.90;;;;;;4958249;28;20555;-77
2022/11/13 00:21:11;;;;;;;62.90;36.47;;;4.50;99.90;;;;;;4991389;28;20393;-77
2022/11/13 00:23:37;;;;;;;59.43;35.33;;;4.50;99.90;;;;;;4988181;28;20089;-77
2022/11/13 00:26:07;;;;;;;64.23;37.07;;;4.60;99.90;;;;;;4988751;28;20062;-77
2022/11/13 00:28:33;;;;;;;63.10;37.23;;;4.60;99.90;;;;;;4980214;28;20100;-77
2022/11/13 00:31:00;;;;;;;66.27;36.40;;;4.60;99.90;;;;;;4994647;28;20062;-80
2022/11/13 00:33:26;;;;;;;60.23;37.70;;;4.70;99.90;;;;;;4994573;28;20129;-77
2022/11/13 00:35:51;;;;;;;59.57;36.83;;;4.70;99.90;;;;;;4992433;28;20157;-77
2022/11/13 00:38:17;;;;;;;59.67;38.67;;;4.80;99.90;;;;;;4971747;28;20053;-79
2022/11/13 00:40:43;;;;;;;64.93;38.97;;;4.80;99.90;;;;;;4992486;28;20416;-78
2022/11/13 00:43:08;;;;;;;61.10;37.80;;;4.90;99.90;;;;;;4973261;28;20508;-77
2022/11/13 00:45:34;;;;;;;56.93;37.77;;;5.00;99.90;;;;;;4993041;28;20408;-78
2022/11/13 00:47:59;;;;;;;69.20;41.53;;;5.10;99.90;;;;;;4977890;28;20050;-78
2022/11/13 00:50:25;;;;;;;68.87;41.37;;;5.10;99.90;;;;;;4995201;28;20042;-77
2022/11/13 00:52:51;;;;;;;61.83;40.73;;;5.00;99.90;;;;;;4991673;28;20069;-77
2022/11/13 00:55:16;;;;;;;65.90;40.70;;;5.10;99.90;;;;;;4991992;28;20047;-78
2022/11/13 00:57:42;;;;;;;64.93;39.80;;;5.10;99.90;;;;;;4974450;28;20054;-77
2022/11/13 01:00:08;;;;;;;55.50;38.23;;;5.20;99.90;;;;;;4988743;28;20184;-77
2022/11/13 01:02:34;;;;;;;69.57;40.50;;;5.20;99.90;;;;;;4987449;28;20051;-78
2022/11/13 01:05:00;;;;;;;72.67;41.87;;;5.20;99.90;;;;;;4988783;28;20484;-78
2022/11/13 01:07:26;;;;;;;55.07;36.73;;;5.20;99.90;;;;;;4970046;28;20053;-77
2022/11/13 01:09:52;;;;;;;52.77;37.50;;;5.20;99.90;;;;;;4989753;28;20185;-77
2022/11/13 01:12:17;;;;;;;58.50;37.30;;;5.20;99.90;;;;;;4988575;28;20060;-77
2022/11/13 01:14:43;;;;;;;56.43;36.70;;;5.30;99.90;;;;;;4969450;28;20511;-78
2022/11/13 01:17:08;;;;;;;49.47;35.27;;;5.20;99.90;;;;;;4972575;28;20120;-78
2022/11/13 01:19:34;;;;;;;50.13;34.23;;;5.20;99.90;;;;;;4986746;28;20074;-78
2022/11/13 01:22:00;;;;;;;51.03;36.73;;;5.30;99.90;;;;;;4991847;28;20456;-77
2022/11/13 01:24:26;;;;;;;54.43;35.50;;;5.20;99.90;;;;;;4990185;28;20056;-77
2022/11/13 01:26:51;;;;;;;47.53;34.17;;;5.30;99.90;;;;;;4975083;28;20416;-77
2022/11/13 01:29:17;;;;;;;52.37;35.97;;;5.30;99.90;;;;;;4988679;28;20117;-77
2022/11/13 01:31:43;;;;;;;62.80;36.57;;;5.30;99.90;;;;;;4989773;28;20070;-77
2022/11/13 01:34:08;;;;;;;55.17;36.33;;;5.50;99.90;;;;;;4973367;28;20050;-81
2022/11/13 01:36:34;;;;;;;50.77;33.37;;;5.30;99.90;;;;;;4977409;28;20046;-77
2022/11/13 01:39:00;;;;;;;52.87;35.40;;;5.40;99.90;;;;;;4986925;28;20043;-77
2022/11/13 01:41:28;;;;;;;52.13;34.77;;;5.40;99.90;;;;;;4990522;28;20050;-76
2022/11/13 01:43:55;;;;;;;49.53;34.20;;;5.50;99.90;;;;;;4989897;28;20053;-76
2022/11/13 01:46:28;;;;;;;46.53;32.30;;;5.60;99.90;;;;;;4980294;28;20047;-77
2022/11/13 01:49:00;;;;;;;50.20;34.03;;;5.70;99.90;;;;;;4983733;28;20054;-77
2022/11/13 01:51:33;;;;;;;47.47;32.63;;;5.70;99.90;;;;;;4974056;28;20264;-77
2022/11/13 01:54:05;;;;;;;53.03;34.10;;;5.70;99.90;;;;;;4982245;28;20058;-78
2022/11/13 01:56:31;;;;;;;50.13;33.90;;;5.70;99.90;;;;;;4955087;28;20054;-80
2022/11/13 01:59:09;;;;;;;51.67;34.80;;;5.80;99.90;;;;;;4966794;28;20054;-77
2022/11/13 02:01:35;;;;;;;50.57;33.13;;;5.80;99.90;;;;;;4983572;28;20141;-77
2022/11/13 02:04:00;;;;;;;53.37;34.33;;;5.90;99.90;;;;;;4985319;28;20552;-77
2022/11/13 02:06:31;;;;;;;52.60;34.13;;;5.70;99.90;;;;;;4974095;28;20050;-77
2022/11/13 02:08:57;;;;;;;53.80;33.47;;;5.70;99.90;;;;;;4982449;28;20046;-77
2022/11/13 02:11:24;;;;;;;57.13;35.23;;;5.80;99.90;;;;;;4987086;28;20489;-77
2022/11/13 02:13:50;;;;;;;61.70;37.47;;;5.60;99.90;;;;;;4989728;28;20408;-76
2022/11/13 02:16:16;;;;;;;80.70;46.77;;;5.60;99.90;;;;;;4961253;28;20061;-77
2022/11/13 02:18:42;;;;;;;87.70;48.97;;;5.60;99.90;;;;;;4981455;28;20077;-77
2022/11/13 02:21:36;;;;;;;90.57;50.00;;;5.70;99.90;;;;;;4990466;28;20097;-77
2022/11/13 02:24:23;;;;;;;93.40;52.43;;;5.60;99.90;;;;;;4987568;28;20138;-76
2022/11/13 02:26:50;;;;;;;98.57;59.73;;;5.50;99.90;;;;;;4971411;28;20527;-77
2022/11/13 02:29:16;;;;;;;113.00;65.53;;;5.70;99.90;;;;;;4981589;28;20284;-77
2022/11/13 02:31:42;;;;;;;99.47;63.43;;;5.70;99.90;;;;;;4970048;28;20071;-77
2022/11/13 02:34:08;;;;;;;93.50;56.77;;;5.70;99.90;;;;;;4968927;28;20055;-77
2022/11/13 02:36:34;;;;;;;105.60;59.83;;;5.60;99.90;;;;;;4971911;28;20121;-77
2022/11/13 02:39:03;;;;;;;88.83;52.40;;;5.60;99.90;;;;;;4985063;28;20069;-77
2022/11/13 02:41:29;;;;;;;84.10;49.00;;;5.50;99.90;;;;;;4989556;28;20058;-77
2022/11/13 02:43:54;;;;;;;75.63;43.83;;;5.60;99.90;;;;;;4986531;28;20047;-77
2022/11/13 02:46:20;;;;;;;65.17;40.07;;;5.60;99.90;;;;;;4977359;28;20047;-78
2022/11/13 02:48:46;;;;;;;68.57;41.97;;;5.60;99.90;;;;;;4983081;28;20054;-77
2022/11/13 02:51:12;;;;;;;70.60;40.47;;;5.60;99.90;;;;;;4988177;28;20074;-77
2022/11/13 02:53:38;;;;;;;55.40;35.70;;;5.50;99.90;;;;;;4985729;28;20104;-77
2022/11/13 02:56:04;;;;;;;61.63;36.33;;;5.60;99.90;;;;;;4990045;28;20311;-77
2022/11/13 02:58:30;;;;;;;54.47;33.23;;;5.50;99.90;;;;;;4969825;28;20062;-77
2022/11/13 03:00:56;;;;;;;55.63;33.60;;;5.50;99.90;;;;;;4985843;28;20049;-77
2022/11/13 03:03:21;;;;;;;61.53;36.37;;;5.50;99.90;;;;;;4985672;28;20500;-76
2022/11/13 03:05:48;;;;;;;51.17;33.33;;;5.60;99.90;;;;;;4972484;28;20081;-77
2022/11/13 03:08:14;;;;;;;47.87;32.40;;;5.50;99.90;;;;;;4950278;28;20379;-77
2022/11/13 03:10:40;;;;;;;50.43;33.13;;;5.50;99.90;;;;;;4985643;28;20026;-79
2022/11/13 03:13:06;;;;;;;51.40;33.57;;;5.60;99.90;;;;;;4988914;28;20413;-77
2022/11/13 03:15:33;;;;;;;54.67;33.77;;;5.50;99.90;;;;;;4969839;28;20046;-77
2022/11/13 03:18:05;;;;;;;51.13;32.10;;;5.50;99.90;;;;;;4970186;28;20060;-77
2022/11/13 03:20:32;;;;;;;49.00;31.60;;;5.50;99.90;;;;;;4985193;28;20552;-77
2022/11/13 03:22:57;;;;;;;43.70;31.27;;;5.50;99.90;;;;;;4988539;28;20081;-77
2022/11/13 03:25:23;;;;;;;50.10;32.27;;;5.50;99.90;;;;;;4980954;28;20129;-76
2022/11/13 03:27:49;;;;;;;48.50;31.07;;;5.50;99.90;;;;;;4968737;28;20523;-77
2022/11/13 03:30:14;;;;;;;41.70;29.90;;;5.50;99.90;;;;;;4987851;28;20507;-77
2022/11/13 03:32:40;;;;;;;42.90;29.67;;;5.50;99.90;;;;;;4971206;28;20510;-79
2022/11/13 03:35:06;;;;;;;43.47;31.23;;;5.50;99.90;;;;;;4986417;28;20331;-77
2022/11/13 03:37:32;;;;;;;43.27;30.53;;;5.60;99.90;;;;;;4967859;28;20320;-77
2022/11/13 03:39:57;;;;;;;42.67;30.37;;;5.60;99.90;;;;;;4987811;28;20054;-77
2022/11/13 03:42:23;;;;;;;39.07;28.07;;;5.60;99.90;;;;;;4988795;28;20396;-78
2022/11/13 03:44:48;;;;;;;38.53;28.13;;;5.60;99.90;;;;;;4988414;28;20496;-77
2022/11/13 03:47:14;;;;;;;40.17;28.30;;;5.60;99.90;;;;;;4969640;28;20525;-78
2022/11/13 03:49:40;;;;;;;37.03;27.97;;;5.60;99.90;;;;;;4984017;28;20043;-77
2022/11/13 03:52:06;;;;;;;39.03;27.20;;;5.70;99.90;;;;;;4967053;28;20054;-77
2022/11/13 03:54:31;;;;;;;40.50;28.83;;;5.70;99.90;;;;;;4988767;28;20058;-77
2022/11/13 03:56:57;;;;;;;41.20;28.63;;;5.80;99.90;;;;;;4973849;28;20096;-77
2022/11/13 03:59:23;;;;;;;41.97;28.73;;;5.70;99.90;;;;;;4982460;28;20510;-76
2022/11/13 04:01:48;;;;;;;39.87;28.67;;;5.70;99.90;;;;;;4986320;28;20532;-79
2022/11/13 04:04:14;;;;;;;42.53;27.87;;;5.70;99.90;;;;;;4987994;28;20395;-77
2022/11/13 04:06:40;;;;;;;38.53;28.43;;;5.70;99.90;;;;;;4958260;28;20531;-77
2022/11/13 04:09:06;;;;;;;39.60;26.83;;;5.70;99.90;;;;;;4983332;28;20065;-77
2022/11/13 04:11:32;;;;;;;37.63;25.23;;;5.60;99.90;;;;;;4984074;28;20078;-76
2022/11/13 04:13:58;;;;;;;38.47;26.23;;;5.70;99.90;;;;;;4988208;28;20175;-77
2022/11/13 04:16:24;;;;;;;38.80;27.40;;;5.80;99.90;;;;;;4977929;28;20069;-77
2022/11/13 04:18:50;;;;;;;36.30;27.07;;;5.70;99.90;;;;;;4978803;28;20137;-77
2022/11/13 04:21:16;;;;;;;38.00;26.20;;;5.60;99.90;;;;;;4985221;28;20043;-77
2022/11/13 04:23:41;;;;;;;38.50;26.53;;;5.50;99.90;;;;;;4986895;28;20085;-80
2022/11/13 04:26:07;;;;;;;39.10;25.13;;;5.60;99.90;;;;;;4989325;28;20046;-80
2022/11/13 04:28:33;;;;;;;35.83;25.23;;;5.60;99.90;;;;;;4953484;28;20500;-77
2022/11/13 04:30:58;;;;;;;36.87;26.03;;;5.50;99.90;;;;;;4982951;28;20109;-77
2022/11/13 04:33:24;;;;;;;36.70;25.67;;;5.50;99.90;;;;;;4983468;28;20146;-77
2022/11/13 04:35:50;;;;;;;34.83;25.57;;;5.60;99.90;;;;;;4974851;28;20448;-77
2022/11/13 04:38:15;;;;;;;40.17;26.27;;;5.70;99.90;;;;;;4970617;28;20377;-77
2022/11/13 04:40:41;;;;;;;39.73;26.83;;;5.50;99.90;;;;;;4989652;28;20046;-77
2022/11/13 04:43:07;;;;;;;38.17;27.27;;;5.50;99.90;;;;;;4987738;28;20050;-77
2022/11/13 04:45:34;;;;;;;36.77;26.47;;;5.50;99.90;;;;;;4972952;28;20153;-77
2022/11/13 04:47:59;;;;;;;39.20;27.67;;;5.60;99.90;;;;;;4957562;28;20050;-77
2022/11/13 04:50:25;;;;;;;36.97;27.73;;;5.60;99.90;;;;;;4991699;28;20049;-77
2022/11/13 04:52:51;;;;;;;41.87;27.70;;;5.70;99.90;;;;;;4989509;28;20409;-77
2022/11/13 04:55:16;;;;;;;35.80;26.63;;;5.80;99.90;;;;;;4992075;28;20531;-77
2022/11/13 04:57:42;;;;;;;37.37;26.13;;;5.70;99.90;;;;;;4974537;28;20058;-78
2022/11/13 05:00:08;;;;;;;38.07;26.47;;;5.80;99.90;;;;;;4988732;28;20050;-77
2022/11/13 05:02:34;;;;;;;38.00;27.37;;;5.80;99.90;;;;;;4972077;28;20073;-77
2022/11/13 05:05:00;;;;;;;37.30;25.47;;;5.80;99.90;;;;;;4991322;28;20042;-77
2022/11/13 05:07:26;;;;;;;35.23;25.17;;;5.90;99.90;;;;;;4975113;28;20420;-77
2022/11/13 05:09:52;;;;;;;35.57;25.17;;;5.90;99.90;;;;;;4986986;28;20081;-77
2022/11/13 05:12:18;;;;;;;34.07;24.17;;;5.90;99.90;;;;;;4973917;28;20050;-77
2022/11/13 05:14:44;;;;;;;33.63;24.07;;;5.80;99.90;;;;;;4973021;28;20047;-77
2022/11/13 05:17:11;;;;;;;36.90;24.57;;;5.80;99.90;;;;;;4975755;28;20097;-77
2022/11/13 05:19:37;;;;;;;31.73;23.43;;;5.80;99.90;;;;;;4986157;28;20046;-77
2022/11/13 05:22:04;;;;;;;34.93;25.47;;;5.80;99.90;;;;;;4991949;28;20149;-77
2022/11/13 05:24:29;;;;;;;32.10;24.00;;;5.70;99.90;;;;;;4988709;28;20043;-77
2022/11/13 05:26:55;;;;;;;36.50;23.93;;;5.90;99.90;;;;;;4957350;28;20100;-77
2022/11/13 05:29:21;;;;;;;33.37;24.10;;;5.60;99.90;;;;;;4984842;28;20050;-77
2022/11/13 05:31:47;;;;;;;36.67;24.53;;;5.60;99.90;;;;;;4989966;28;20054;-77
2022/11/13 05:34:13;;;;;;;35.03;25.27;;;5.80;99.90;;;;;;4973046;28;20069;-78
2022/11/13 05:36:39;;;;;;;34.37;24.73;;;5.60;99.90;;;;;;4977656;28;20066;-80
2022/11/13 05:39:05;;;;;;;34.87;24.30;;;5.50;99.90;;;;;;4985788;28;20046;-77
2022/11/13 05:41:31;;;;;;;37.17;25.23;;;5.50;99.90;;;;;;4991017;28;20089;-77
2022/11/13 05:43:57;;;;;;;35.97;23.57;;;5.50;99.90;;;;;;4989590;28;20046;-77
2022/11/13 05:46:28;;;;;;;31.27;21.80;;;5.50;99.90;;;;;;4978746;28;20050;-77
2022/11/13 05:48:58;;;;;;;29.80;23.17;;;5.40;99.90;;;;;;4962303;28;20050;-77
2022/11/13 05:51:26;;;;;;;33.63;23.07;;;5.50;99.90;;;;;;4987201;28;20042;-77
2022/11/13 05:53:53;;;;;;;30.20;22.33;;;5.30;99.90;;;;;;4989988;28;20477;-77
2022/11/13 05:56:25;;;;;;;33.37;22.83;;;5.40;99.90;;;;;;4980206;28;20455;-77
2022/11/13 05:58:52;;;;;;;31.57;22.40;;;5.30;99.90;;;;;;4962221;28;20400;-78
2022/11/13 06:01:30;;;;;;;31.40;22.60;;;5.40;99.90;;;;;;4991010;28;20125;-76
2022/11/13 06:03:57;;;;;;;32.93;23.57;;;5.30;99.90;;;;;;4972086;28;20046;-77
2022/11/13 06:06:24;;;;;;;32.47;21.30;;;5.40;99.90;;;;;;4975252;28;20106;-78
2022/11/13 06:08:51;;;;;;;32.03;23.00;;;5.40;99.90;;;;;;4963827;28;20060;-79
2022/11/13 06:11:19;;;;;;;30.60;22.50;;;5.40;99.90;;;;;;4987164;28;20034;-78
2022/11/13 06:13:46;;;;;;;30.37;22.73;;;5.30;99.90;;;;;;4985248;28;20050;-78
2022/11/13 06:16:16;;;;;;;33.47;22.60;;;5.30;99.90;;;;;;4976047;28;20347;-77
2022/11/13 06:18:43;;;;;;;31.27;21.43;;;5.10;99.90;;;;;;4977463;28;20520;-79
2022/11/13 06:21:20;;;;;;;29.47;21.40;;;5.10;99.90;;;;;;4982235;28;20247;-77
2022/11/13 06:23:46;;;;;;;28.03;20.30;;;5.00;99.90;;;;;;4967040;28;20041;-76
2022/11/13 06:26:18;;;;;;;29.77;21.07;;;4.90;99.90;;;;;;4981487;28;20140;-77
2022/11/13 06:28:44;;;;;;;29.70;21.50;;;4.80;99.90;;;;;;4961855;28;20049;-77
2022/11/13 06:31:16;;;;;;;31.03;22.23;;;4.80;99.90;;;;;;4990288;28;20058;-77
2022/11/13 06:33:42;;;;;;;32.03;22.10;;;4.80;99.90;;;;;;4969705;28;20093;-77
2022/11/13 06:36:23;;;;;;;35.63;22.87;;;4.80;99.90;;;;;;4965713;28;20050;-80
2022/11/13 06:38:49;;;;;;;34.27;22.47;;;4.70;99.90;;;;;;4966510;28;20519;-77
2022/11/13 06:41:17;;;;;;;30.77;21.73;;;4.80;99.90;;;;;;4990096;28;20069;-77
2022/11/13 06:43:44;;;;;;;36.03;23.63;;;4.60;99.90;;;;;;4989646;28;20097;-76
2022/11/13 06:46:16;;;;;;;30.73;21.47;;;4.60;99.90;;;;;;4965791;28;20065;-79
2022/11/13 06:48:42;;;;;;;35.50;23.30;;;4.50;99.90;;;;;;4975768;28;20058;-77
2022/11/13 06:51:12;;;;;;;32.90;23.57;;;4.60;99.90;;;;;;4988057;28;20051;-78
2022/11/13 06:53:38;;;;;;;32.87;22.17;;;4.60;99.90;;;;;;4969720;28;20046;-77
2022/11/13 06:56:05;;;;;;;31.57;22.70;;;4.60;99.90;;;;;;4972643;28;20056;-77
2022/11/13 06:58:31;;;;;;;30.40;21.60;;;4.60;99.90;;;;;;4936451;28;20074;-80
2022/11/13 07:00:57;;;;;;;33.63;22.90;;;4.50;99.90;;;;;;4989859;28;20054;-77
2022/11/13 07:03:25;;;;;;;34.77;23.70;;;4.70;99.90;;;;;;4971447;28;20049;-77
2022/11/13 07:05:51;;;;;;;32.93;22.77;;;4.50;99.90;;;;;;4988867;28;20061;-77
2022/11/13 07:08:17;;;;;;;36.77;22.77;;;4.40;99.90;;;;;;4966870;28;20058;-77
2022/11/13 07:10:51;;;;;;;30.30;21.87;;;4.40;99.90;;;;;;4984158;28;20117;-77
2022/11/13 07:13:17;;;;;;;30.67;21.87;;;4.40;99.90;;;;;;4987257;28;20046;-77
2022/11/13 07:15:42;;;;;;;31.20;20.70;;;4.40;99.90;;;;;;4989130;28;20108;-77
2022/11/13 07:18:08;;;;;;;33.03;21.47;;;4.50;99.90;;;;;;4953752;28;20050;-77
2022/11/13 07:20:34;;;;;;;31.50;22.40;;;4.30;99.90;;;;;;4987668;28;20065;-77
2022/11/13 07:23:01;;;;;;;33.97;21.80;;;4.30;99.90;;;;;;4970031;28;20050;-77
2022/11/13 07:25:27;;;;;;;33.57;21.80;;;4.50;99.90;;;;;;4971395;28;20049;-79
2022/11/13 07:27:53;;;;;;;32.60;21.87;;;4.40;99.90;;;;;;4951964;28;20050;-77
2022/11/13 07:30:19;;;;;;;37.83;23.67;;;4.40;99.90;;;;;;4988700;28;20050;-77
2022/11/13 07:32:45;;;;;;;34.97;24.30;;;4.60;99.90;;;;;;4988446;28;20070;-76
2022/11/13 07:35:11;;;;;;;35.50;22.90;;;4.70;99.90;;;;;;4988119;28;20054;-78
2022/11/13 07:37:37;;;;;;;33.00;22.67;;;4.80;99.90;;;;;;4970667;28;20042;-77
2022/11/13 07:40:04;;;;;;;31.17;22.13;;;4.80;99.90;;;;;;4988249;28;20069;-77
2022/11/13 07:42:30;;;;;;;32.13;21.83;;;4.80;99.90;;;;;;4986871;28;20046;-77
2022/11/13 07:44:55;;;;;;;32.03;22.57;;;4.80;99.90;;;;;;4982170;28;20053;-76
2022/11/13 07:47:22;;;;;;;35.27;22.80;;;4.90;99.90;;;;;;4943204;28;20038;-79
2022/11/13 07:49:47;;;;;;;32.60;21.83;;;5.00;99.90;;;;;;4980650;28;20043;-77
2022/11/13 07:52:13;;;;;;;28.83;21.30;;;5.10;99.90;;;;;;4977192;28;20058;-77
2022/11/13 07:54:39;;;;;;;31.90;21.93;;;5.10;99.90;;;;;;4958014;28;20050;-77
2022/11/13 07:57:04;;;;;;;27.30;21.07;;;5.20;99.90;;;;;;4963950;28;20432;-75
2022/11/13 07:59:30;;;;;;;31.30;21.83;;;5.30;99.90;;;;;;4975995;28;20067;-78
2022/11/13 08:01:56;;;;;;;30.60;20.87;;;5.30;99.90;;;;;;4977612;28;20085;-78
2022/11/13 08:04:21;;;;;;;31.33;22.20;;;5.30;99.90;;;;;;4979672;28;20113;-77
2022/11/13 08:06:47;;;;;;;28.73;21.10;;;5.40;99.90;;;;;;4969366;28;20405;-78
2022/11/13 08:09:13;;;;;;;31.00;21.43;;;5.40;99.90;;;;;;4976017;28;20478;-77
2022/11/13 08:11:38;;;;;;;30.20;21.37;;;5.50;99.90;;;;;;4970853;28;20047;-76
2022/11/13 08:14:04;;;;;;;27.70;20.53;;;5.60;99.90;;;;;;4980216;28;20077;-77
2022/11/13 08:16:30;;;;;;;30.60;21.13;;;5.60;99.90;;;;;;4958032;28;20613;-76
2022/11/13 08:18:56;;;;;;;25.83;20.37;;;5.60;99.90;;;;;;4978161;28;20046;-77
2022/11/13 08:21:21;;;;;;;31.33;20.97;;;5.80;99.90;;;;;;4981257;28;20078;-76
2022/11/13 08:23:49;;;;;;;27.93;21.13;;;5.80;99.90;;;;;;4963318;28;20056;-78
2022/11/13 08:26:15;;;;;;;30.10;20.37;;;5.90;99.90;;;;;;4972170;28;20054;-78
2022/11/13 08:28:41;;;;;;;29.17;20.77;;;6.00;99.90;;;;;;4977378;28;20408;-77
2022/11/13 08:31:12;;;;;;;24.93;20.03;;;6.10;99.90;;;;;;4981372;28;20092;-78
2022/11/13 08:33:39;;;;;;;25.90;16.77;;;6.20;99.90;;;;;;4974478;28;20055;-76
2022/11/13 08:36:04;;;;;;;26.20;20.33;;;6.30;99.90;;;;;;4977040;28;20121;-77
2022/11/13 08:38:30;;;;;;;27.53;20.07;;;6.40;99.90;;;;;;4945113;28;20049;-77
2022/11/13 08:41:01;;;;;;;24.80;19.17;;;6.50;99.90;;;;;;4977064;28;20046;-77
2022/11/13 08:43:26;;;;;;;30.00;20.77;;;6.50;99.90;;;;;;4978775;28;20054;-77
2022/11/13 08:45:52;;;;;;;29.10;21.30;;;6.70;99.90;;;;;;4960356;28;20318;-79
2022/11/13 08:48:18;;;;;;;26.27;19.30;;;6.80;99.90;;;;;;4962304;28;20046;-77
2022/11/13 08:50:44;;;;;;;27.00;19.67;;;6.90;99.90;;;;;;4981475;28;20053;-77
2022/11/13 08:53:10;;;;;;;30.07;20.03;;;7.00;99.90;;;;;;4984542;28;20058;-77
2022/11/13 08:55:36;;;;;;;26.90;19.43;;;7.10;99.90;;;;;;4965198;28;20527;-78
2022/11/13 08:58:03;;;;;;;23.13;18.83;;;7.10;99.90;;;;;;4965154;28;20046;-78
2022/11/13 09:00:30;;;;;;;25.33;19.17;;;7.30;99.90;;;;;;4980224;28;20042;-79
2022/11/13 09:02:57;;;;;;;23.27;16.53;;;7.30;99.90;;;;;;4979408;28;20109;-77
2022/11/13 09:05:24;;;;;;;22.10;17.30;;;7.60;99.90;;;;;;4981299;28;20673;-80
2022/11/13 09:07:50;;;;;;;21.20;17.10;;;7.50;99.90;;;;;;4964727;28;20053;-76
2022/11/13 09:10:17;;;;;;;22.40;17.20;;;7.60;99.90;;;;;;4978924;28;20047;-76
2022/11/13 09:12:43;;;;;;;19.70;16.87;;;7.70;99.90;;;;;;4982029;28;20086;-77
2022/11/13 09:15:10;;;;;;;19.10;16.03;;;7.80;99.90;;;;;;4983890;28;20508;-78
2022/11/13 09:17:36;;;;;;;20.83;16.03;;;7.90;99.90;;;;;;4952840;28;20090;-77
2022/11/13 09:20:01;;;;;;;22.00;16.47;;;7.90;99.90;;;;;;4985905;28;20067;-77
2022/11/13 09:22:27;;;;;;;20.97;15.60;;;8.10;99.90;;;;;;4986713;28;20058;-78
2022/11/13 09:24:53;;;;;;;20.77;15.60;;;8.10;99.90;;;;;;4969363;28;20496;-77
2022/11/13 09:27:18;;;;;;;21.30;15.37;;;8.20;99.90;;;;;;4953982;28;20412;-77
2022/11/13 09:29:44;;;;;;;19.00;14.27;;;8.30;99.90;;;;;;4967376;28;20069;-77
2022/11/13 09:32:09;;;;;;;18.53;13.97;;;8.40;99.90;;;;;;4968986;28;20108;-77
2022/11/13 09:34:35;;;;;;;15.87;12.97;;;8.50;99.90;;;;;;4988206;28;20058;-78
2022/11/13 09:37:01;;;;;;;19.07;14.50;;;8.70;99.90;;;;;;4954684;28;20042;-80
2022/11/13 09:39:27;;;;;;;19.23;14.83;;;8.90;99.90;;;;;;4983478;28;20406;-77
2022/11/13 09:41:56;;;;;;;16.50;13.83;;;9.00;99.90;;;;;;4962714;28;20054;-78
2022/11/13 09:44:30;;;;;;;17.10;12.80;;;9.20;99.90;;;;;;4982393;28;20050;-77
2022/11/13 09:47:05;;;;;;;16.40;12.97;;;9.30;99.90;;;;;;4953612;28;20097;-77
2022/11/13 09:49:38;;;;;;;17.07;13.00;;;9.30;99.90;;;;;;4981012;28;20505;-78
2022/11/13 09:52:12;;;;;;;15.87;13.73;;;9.30;99.90;;;;;;4981218;28;20255;-73
2022/11/13 09:54:38;;;;;;;16.60;13.50;;;9.50;99.90;;;;;;4979987;28;20069;-77
2022/11/13 09:57:29;;;;;;;19.13;13.93;;;9.60;99.90;;;;;;4968655;28;20491;-77
2022/11/13 10:00:19;;;;;;;15.33;13.00;;;10.10;99.90;;;;;;4980083;28;20046;-78
2022/11/13 10:02:52;;;;;;;16.53;12.07;;;10.40;99.90;;;;;;4981183;28;20046;-78
2022/11/13 10:05:52;;;;;;;16.77;13.13;;;10.40;99.90;;;;;;4981014;28;20076;-78
2022/11/13 10:08:34;;;;;;;18.10;13.40;;;10.70;99.90;;;;;;4966818;28;20057;-77
2022/11/13 10:11:29;;;;;;;15.73;12.73;;;11.00;99.90;;;;;;4982005;28;20042;-77
2022/11/13 10:14:02;;;;;;;19.27;12.03;;;11.30;99.90;;;;;;4968903;28;20046;-77
2022/11/13 10:16:39;;;;;;;14.38;11.95;;;11.40;99.90;;;;;;4968984;28;20046;-77
2022/11/13 10:19:20;;;;;;;13.48;11.77;;;11.50;99.90;;;;;;4981583;28;20053;-77
2022/11/13 10:21:51;;;;;;;13.65;8.63;;;11.70;99.90;;;;;;4981674;28;20055;-77
2022/11/13 10:24:27;;;;;;;14.23;10.85;;;12.00;99.90;;;;;;4982403;28;20173;-78
2022/11/13 10:26:58;;;;;;;13.00;10.82;;;12.10;99.90;;;;;;4965207;28;20050;-77
2022/11/13 10:29:27;;;;;;;13.93;11.15;;;12.10;99.90;;;;;;4959384;28;20055;-77
2022/11/13 10:31:53;;;;;;;13.38;9.65;;;12.20;99.90;;;;;;4977072;28;20393;-79
2022/11/13 10:34:19;;;;;;;10.73;9.55;;;12.60;99.90;;;;;;4964344;28;20138;-80
2022/11/13 10:36:51;;;;;;;13.80;9.98;;;12.50;99.90;;;;;;4966236;28;20129;-78
2022/11/13 10:39:17;;;;;;;14.93;9.80;;;13.00;99.90;;;;;;4978259;28;20064;-77
2022/11/13 10:41:48;;;;;;;12.43;9.38;;;13.40;99.90;;;;;;4984513;28;20050;-79
2022/11/13 10:44:50;;;;;;;11.75;10.02;;;13.70;99.90;;;;;;4983309;28;20050;-78
2022/11/13 10:47:19;;;;;;;11.63;9.38;;;13.70;99.90;;;;;;4964371;28;20057;-77
2022/11/13 10:49:44;;;;;;;13.15;10.20;;;13.70;99.90;;;;;;4981936;28;20522;-78
2022/11/13 10:52:19;;;;;;;11.50;8.93;;;14.20;99.90;;;;;;4978669;28;20070;-78
2022/11/13 10:54:46;;;;;;;11.55;9.23;;;14.40;99.90;;;;;;4974368;28;20046;-78
2022/11/13 10:57:27;;;;;;;10.88;9.20;;;14.70;99.90;;;;;;4961332;28;20116;-78
2022/11/13 10:59:53;;;;;;;11.93;9.55;;;15.00;99.90;;;;;;4981530;28;20057;-78
2022/11/13 11:02:20;;;;;;;9.70;8.70;;;15.20;99.90;;;;;;4984926;28;20046;-77
2022/11/13 11:04:46;;;;;;;10.77;8.38;;;15.80;99.90;;;;;;4982174;28;20546;-77
2022/11/13 11:07:17;;;;;;;10.25;8.68;;;16.10;99.90;;;;;;4963081;28;20050;-78
2022/11/13 11:09:45;;;;;;;11.67;8.53;;;16.10;99.90;;;;;;4959937;28;20050;-78
2022/11/13 11:12:20;;;;;;;12.00;9.00;;;15.80;99.90;;;;;;4965564;28;20050;-78
2022/11/13 11:14:57;;;;;;;10.85;8.35;;;15.50;99.90;;;;;;4968692;28;20173;-78
2022/11/13 11:17:50;;;;;;;10.63;9.13;;;15.20;99.90;;;;;;4960295;28;20556;-78
2022/11/13 11:20:50;;;;;;;10.30;8.80;;;15.70;99.90;;;;;;4979830;28;20046;-76
2022/11/13 11:23:39;;;;;;;11.43;8.30;;;16.60;99.90;;;;;;4982108;28;20042;-76
2022/11/13 11:26:29;;;;;;;9.30;8.30;;;16.90;99.90;;;;;;4981326;28;20079;-76
2022/11/13 11:29:36;;;;;;;10.95;9.05;;;16.50;99.90;;;;;;4975108;28;20133;-76
2022/11/13 11:32:05;;;;;;;10.98;8.38;;;15.70;99.90;;;;;;4953206;28;20065;-75
2022/11/13 11:34:42;;;;;;;10.70;8.73;;;14.90;99.90;;;;;;4981040;28;20474;-79
2022/11/13 11:37:15;;;;;;;11.93;9.05;;;14.50;99.90;;;;;;4967800;28;20399;-78
2022/11/13 11:39:44;;;;;;;12.00;9.02;;;14.00;99.90;;;;;;4981613;28;20621;-78
2022/11/13 11:42:22;;;;;;;12.52;9.57;;;13.60;99.90;;;;;;4982861;28;20722;-78
2022/11/13 11:44:53;;;;;;;12.23;9.27;;;13.30;99.90;;;;;;4984223;28;20054;-81
2022/11/13 11:47:19;;;;;;;12.18;9.30;;;13.10;99.90;;;;;;4965099;28;20248;-78
2022/11/13 11:49:45;;;;;;;13.52;9.25;;;13.10;99.90;;;;;;4967294;28;20405;-78
2022/11/13 11:52:28;;;;;;;11.27;9.48;;;13.10;99.90;;;;;;4980397;28;20057;-79
2022/11/13 11:55:22;;;;;;;13.85;9.10;;;13.50;99.90;;;;;;4979329;28;20112;-78
2022/11/13 11:57:50;;;;;;;13.10;8.93;;;13.70;99.90;;;;;;4961813;28;20070;-78
2022/11/13 12:00:18;;;;;;;12.73;10.30;;;14.00;99.90;;;;;;4978598;28;20256;-77
2022/11/13 12:03:21;;;;;;;14.27;11.10;;;14.30;99.90;;;;;;4984420;28;20134;-77
2022/11/13 12:06:10;;;;;;;13.27;10.52;;;14.60;99.90;;;;;;4968566;28;20124;-77
2022/11/13 12:08:51;;;;;;;10.63;9.20;;;14.80;99.90;;;;;;4973539;28;20038;-79
2022/11/13 12:11:28;;;;;;;10.23;8.55;;;15.20;99.90;;;;;;4977067;28;20039;-78
2022/11/13 12:14:08;;;;;;;9.77;8.10;;;15.50;99.90;;;;;;4964382;28;20157;-80
2022/11/13 12:16:43;;;;;;;11.00;8.82;;;15.90;99.90;;;;;;4970212;28;20042;-78
2022/11/13 12:19:32;;;;;;;9.13;7.97;;;16.20;99.90;;;;;;4978884;28;20148;-80
2022/11/13 12:22:02;;;;;;;10.02;8.05;;;16.30;99.90;;;;;;4958540;28;20066;-78
2022/11/13 12:24:37;;;;;;;9.32;8.32;;;15.90;99.90;;;;;;4976980;28;20192;-77
2022/11/13 12:27:15;;;;;;;11.90;8.50;;;15.40;99.90;;;;;;4969166;28;20574;-79
2022/11/13 12:29:55;;;;;;;11.98;7.50;;;15.30;99.90;;;;;;4976969;28;20043;-77
2022/11/13 12:32:53;;;;;;;12.00;8.18;;;15.00;99.90;;;;;;4976448;28;20070;-78
2022/11/13 12:35:22;;;;;;;9.55;8.10;;;14.50;99.90;;;;;;4961163;28;20065;-78
2022/11/13 12:37:59;;;;;;;11.73;7.70;;;14.20;99.90;;;;;;4966308;28;20063;-78
2022/11/13 12:40:45;;;;;;;9.18;8.18;;;14.10;99.90;;;;;;4983409;28;20055;-78
2022/11/13 12:43:19;;;;;;;14.38;8.52;;;14.10;99.90;;;;;;4976389;28;20062;-78
2022/11/13 12:45:51;;;;;;;11.13;8.80;;;14.00;99.90;;;;;;4981895;28;20395;-77